createdAt,value
2018-12-09T00:02:05.963Z,232.43
2018-12-09T00:04:35.887Z,221.33
2018-12-09T00:07:05.909Z,234.47
2018-12-09T00:09:35.618Z,228.63
2018-12-09T00:12:05.478Z,224.40
2018-12-09T00:14:35.415Z,227.13
2018-12-09T00:17:04.978Z,229.70
2018-12-09T00:19:34.823Z,210.53
2018-12-09T00:22:04.917Z,217.40
2018-12-09T00:24:34.557Z,209.30
2018-12-09T00:27:04.273Z,224.83
2018-12-09T00:29:34.337Z,222.70
2018-12-09T00:32:04.301Z,225.40
2018-12-09T00:34:33.907Z,238.03
2018-12-09T00:37:03.582Z,239.03
2018-12-09T00:39:33.258Z,248.53
2018-12-09T00:42:03.397Z,243.03
2018-12-09T00:44:33.260Z,248.27
2018-12-09T00:47:03.015Z,247.97
2018-12-09T00:49:32.995Z,251.43
2018-12-09T00:52:02.601Z,251.13
2018-12-09T00:54:32.223Z,258.53
2018-12-09T00:57:01.739Z,261.20
2018-12-09T00:59:31.632Z,260.83
2018-12-09T01:02:05.591Z,289.47
2018-12-09T01:04:35.303Z,282.23
2018-12-09T01:07:05.130Z,271.17
2018-12-09T01:09:35.074Z,283.97
2018-12-09T01:12:04.665Z,278.83
2018-12-09T01:14:34.250Z,280.63
2018-12-09T01:17:03.941Z,279.60
2018-12-09T01:19:33.848Z,275.50
2018-12-09T01:22:03.587Z,274.63
2018-12-09T01:24:33.201Z,281.00
2018-12-09T01:27:02.808Z,283.00
2018-12-09T01:29:32.867Z,275.27
2018-12-09T01:32:03.056Z,264.97
2018-12-09T01:34:32.903Z,268.87
2018-12-09T01:37:02.686Z,266.67
2018-12-09T01:39:32.577Z,268.90
2018-12-09T01:42:02.590Z,262.77
2018-12-09T01:44:32.482Z,266.50
2018-12-09T01:47:02.465Z,263.33
2018-12-09T01:49:32.064Z,257.43
2018-12-09T01:52:01.629Z,249.43
2018-12-09T01:54:31.674Z,258.13
2018-12-09T01:57:01.472Z,254.17
2018-12-09T01:59:31.304Z,243.87
2018-12-09T02:02:01.196Z,235.37
2018-12-09T02:04:30.851Z,245.30
2018-12-09T02:07:00.878Z,240.50
2018-12-09T02:09:31.779Z,222.23
2018-12-09T02:12:01.855Z,240.90
2018-12-09T02:14:31.701Z,230.03
2018-12-09T02:17:01.317Z,244.90
2018-12-09T02:19:30.930Z,234.67
2018-12-09T02:22:00.711Z,239.17
2018-12-09T02:24:30.627Z,240.10
2018-12-09T02:27:00.325Z,235.10
2018-12-09T02:29:30.112Z,233.20
2018-12-09T02:32:00.060Z,239.97
2018-12-09T02:34:29.701Z,226.57
2018-12-09T02:36:59.423Z,217.40
2018-12-09T02:39:29.195Z,226.17
2018-12-09T02:41:58.904Z,227.67
2018-12-09T02:44:28.594Z,223.43
2018-12-09T02:46:58.120Z,219.40
2018-12-09T02:49:27.603Z,232.93
2018-12-09T02:51:57.927Z,215.50
2018-12-09T02:54:27.647Z,220.70
2018-12-09T02:56:57.560Z,216.63
2018-12-09T02:59:27.990Z,226.53
2018-12-09T03:01:57.809Z,227.97
2018-12-09T03:04:27.707Z,203.43
2018-12-09T03:06:57.511Z,208.87
2018-12-09T03:09:27.461Z,194.93
2018-12-09T03:11:57.228Z,211.70
2018-12-09T03:14:28.069Z,197.03
2018-12-09T03:16:57.795Z,196.07
2018-12-09T03:19:27.415Z,210.60
2018-12-09T03:21:57.043Z,200.17
2018-12-09T03:24:26.851Z,204.07
2018-12-09T03:26:56.726Z,207.40
2018-12-09T03:29:26.421Z,201.47
2018-12-09T03:31:56.363Z,204.33
2018-12-09T03:34:26.292Z,209.50
2018-12-09T03:36:56.372Z,205.90
2018-12-09T03:39:26.261Z,217.67
2018-12-09T03:41:56.602Z,211.33
2018-12-09T03:44:26.232Z,210.30
2018-12-09T03:46:55.837Z,195.87
2018-12-09T03:49:25.395Z,207.73
2018-12-09T03:51:55.343Z,215.10
2018-12-09T03:54:25.043Z,214.97
2018-12-09T03:56:55.616Z,204.63
2018-12-09T03:59:25.345Z,211.63
2018-12-09T04:01:55.230Z,226.90
2018-12-09T04:04:25.059Z,229.83
2018-12-09T04:06:54.737Z,220.27
2018-12-09T04:09:24.269Z,229.20
2018-12-09T04:11:54.680Z,225.80
2018-12-09T04:14:24.607Z,224.10
2018-12-09T04:16:54.740Z,232.17
2018-12-09T04:19:24.583Z,234.97
2018-12-09T04:21:54.541Z,230.57
2018-12-09T04:24:24.152Z,220.00
2018-12-09T04:26:53.866Z,215.67
2018-12-09T04:29:23.949Z,220.90
2018-12-09T04:31:53.953Z,222.00
2018-12-09T04:34:23.926Z,233.97
2018-12-09T04:36:53.558Z,216.87
2018-12-09T04:39:23.783Z,222.53
2018-12-09T04:41:53.459Z,223.43
2018-12-09T04:44:23.060Z,220.50
2018-12-09T04:46:53.000Z,223.33
2018-12-09T04:49:22.824Z,219.43
2018-12-09T04:51:58.337Z,230.80
2018-12-09T04:54:28.631Z,218.33
2018-12-09T04:56:58.478Z,206.37
2018-12-09T04:59:29.037Z,211.63
2018-12-09T05:01:58.618Z,223.50
2018-12-09T05:04:29.343Z,210.70
2018-12-09T05:06:59.232Z,203.13
2018-12-09T05:09:28.885Z,215.07
2018-12-09T05:11:58.538Z,209.43
2018-12-09T05:14:28.145Z,216.83
2018-12-09T05:16:58.245Z,220.23
2018-12-09T05:19:27.905Z,222.17
2018-12-09T05:21:58.294Z,215.53
2018-12-09T05:24:28.346Z,215.43
2018-12-09T05:26:58.023Z,215.77
2018-12-09T05:29:27.614Z,215.10
2018-12-09T05:31:57.811Z,208.67
2018-12-09T05:34:27.552Z,202.27
2018-12-09T05:36:57.374Z,211.10
2018-12-09T05:39:26.871Z,199.43
2018-12-09T05:41:56.694Z,213.10
2018-12-09T05:44:26.551Z,228.07
2018-12-09T05:46:56.098Z,211.60
2018-12-09T05:49:25.687Z,199.13
2018-12-09T05:51:55.565Z,200.90
2018-12-09T05:54:25.651Z,197.80
2018-12-09T05:56:55.463Z,212.47
2018-12-09T05:59:25.534Z,209.93
2018-12-09T06:02:03.064Z,208.57
2018-12-09T06:04:33.074Z,205.77
2018-12-09T06:07:02.902Z,211.37
2018-12-09T06:09:32.620Z,223.67
2018-12-09T06:12:02.288Z,214.83
2018-12-09T06:14:32.390Z,203.33
2018-12-09T06:17:02.016Z,232.87
2018-12-09T06:19:31.575Z,212.43
2018-12-09T06:22:01.638Z,203.67
2018-12-09T06:24:31.261Z,215.97
2018-12-09T06:27:01.025Z,208.97
2018-12-09T06:29:30.600Z,208.77
2018-12-09T06:32:00.400Z,216.97
2018-12-09T06:34:30.306Z,206.93
2018-12-09T06:37:00.781Z,231.10
2018-12-09T06:39:30.554Z,215.23
2018-12-09T06:42:00.701Z,225.10
2018-12-09T06:44:30.321Z,221.53
2018-12-09T06:46:59.894Z,211.07
2018-12-09T06:49:29.574Z,201.27
2018-12-09T06:51:59.498Z,189.63
2018-12-09T06:54:29.419Z,191.60
2018-12-09T06:56:59.231Z,167.30
2018-12-09T06:59:29.335Z,169.97
2018-12-09T07:01:59.141Z,171.07
2018-12-09T07:04:29.268Z,165.10
2018-12-09T07:06:58.879Z,163.13
2018-12-09T07:09:28.479Z,155.23
2018-12-09T07:11:58.653Z,165.50
2018-12-09T07:14:28.413Z,170.27
2018-12-09T07:16:58.154Z,175.43
2018-12-09T07:19:28.760Z,185.27
2018-12-09T07:21:58.818Z,184.57
2018-12-09T07:24:28.518Z,173.07
2018-12-09T07:26:58.569Z,187.53
2018-12-09T07:29:28.272Z,182.57
2018-12-09T07:31:58.129Z,175.97
2018-12-09T07:34:28.075Z,186.83
2018-12-09T07:36:57.789Z,185.03
2018-12-09T07:39:27.460Z,182.27
2018-12-09T07:41:57.639Z,178.87
2018-12-09T07:44:28.119Z,185.43
2018-12-09T07:46:57.744Z,189.67
2018-12-09T07:49:27.586Z,184.37
2018-12-09T07:51:57.462Z,176.83
2018-12-09T07:54:27.182Z,174.03
2018-12-09T07:56:57.055Z,175.63
2018-12-09T07:59:26.817Z,173.30
2018-12-09T08:01:56.483Z,170.53
2018-12-09T08:04:26.947Z,166.83
2018-12-09T08:06:56.576Z,162.00
2018-12-09T08:09:26.204Z,174.07
2018-12-09T08:11:55.980Z,172.57
2018-12-09T08:14:25.843Z,167.30
2018-12-09T08:16:55.604Z,170.43
2018-12-09T08:19:25.810Z,173.43
2018-12-09T08:21:55.503Z,158.87
2018-12-09T08:24:25.546Z,169.67
2018-12-09T08:26:55.257Z,169.80
2018-12-09T08:29:25.595Z,178.93
2018-12-09T08:31:55.536Z,165.27
2018-12-09T08:34:25.636Z,180.27
2018-12-09T08:36:55.506Z,165.20
2018-12-09T08:39:25.562Z,178.70
2018-12-09T08:41:55.137Z,163.70
2018-12-09T08:44:24.798Z,159.73
2018-12-09T08:46:54.371Z,165.23
2018-12-09T08:49:24.140Z,156.73
2018-12-09T08:51:53.894Z,151.60
2018-12-09T08:54:23.447Z,162.90
2018-12-09T08:56:52.905Z,167.17
2018-12-09T08:59:22.462Z,167.70
2018-12-09T09:01:51.958Z,167.13
2018-12-09T09:04:21.572Z,176.37
2018-12-09T09:06:51.244Z,170.77
2018-12-09T09:09:21.061Z,181.33
2018-12-09T09:11:50.999Z,176.83
2018-12-09T09:14:20.514Z,165.00
2018-12-09T09:16:50.077Z,160.70
2018-12-09T09:19:19.642Z,166.37
2018-12-09T09:21:49.287Z,157.20
2018-12-09T09:24:19.353Z,164.53
2018-12-09T09:26:49.111Z,152.87
2018-12-09T09:29:18.594Z,151.47
2018-12-09T09:31:48.343Z,147.27
2018-12-09T09:34:18.272Z,149.50
2018-12-09T09:36:49.034Z,138.53
2018-12-09T09:39:18.637Z,139.70
2018-12-09T09:41:48.443Z,142.13
2018-12-09T09:44:18.278Z,141.47
2018-12-09T09:46:47.974Z,132.53
2018-12-09T09:49:18.552Z,131.23
2018-12-09T09:51:48.179Z,125.87
2018-12-09T09:54:17.744Z,113.57
2018-12-09T09:56:47.766Z,116.70
2018-12-09T09:59:17.344Z,111.43
2018-12-09T10:01:47.281Z,111.17
2018-12-09T10:04:17.161Z,107.03
2018-12-09T10:06:46.791Z,103.43
2018-12-09T10:09:16.408Z,103.17
2018-12-09T10:11:46.269Z,97.10
2018-12-09T10:14:16.222Z,95.27
2018-12-09T10:16:45.823Z,92.23
2018-12-09T10:19:15.719Z,82.87
2018-12-09T10:21:45.589Z,79.03
2018-12-09T10:24:15.082Z,80.63
2018-12-09T10:26:44.714Z,68.67
2018-12-09T10:29:14.319Z,68.13
2018-12-09T10:31:44.067Z,60.63
2018-12-09T10:34:13.844Z,59.57
2018-12-09T10:36:43.365Z,58.87
2018-12-09T10:39:13.010Z,63.50
2018-12-09T10:41:42.524Z,47.27
2018-12-09T10:44:12.154Z,50.20
2018-12-09T10:46:41.722Z,67.13
2018-12-09T10:49:11.600Z,46.17
2018-12-09T10:51:41.384Z,50.43
2018-12-09T10:54:10.927Z,52.30
2018-12-09T10:56:40.506Z,42.33
2018-12-09T10:59:10.046Z,43.77
2018-12-09T11:01:40.062Z,40.17
2018-12-09T11:04:09.873Z,48.37
2018-12-09T11:06:39.640Z,39.67
2018-12-09T11:09:09.863Z,35.67
2018-12-09T11:11:39.477Z,33.93
2018-12-09T11:14:09.165Z,37.57
2018-12-09T11:16:39.184Z,37.83
2018-12-09T11:19:08.773Z,31.93
2018-12-09T11:21:38.395Z,34.17
2018-12-09T11:24:08.006Z,31.97
2018-12-09T11:26:37.552Z,35.03
2018-12-09T11:29:07.439Z,31.73
2018-12-09T11:31:37.036Z,32.90
2018-12-09T11:34:06.628Z,33.63
2018-12-09T11:36:36.343Z,35.03
2018-12-09T11:39:09.342Z,29.07
2018-12-09T11:41:40.035Z,28.70
2018-12-09T11:44:09.636Z,26.30
2018-12-09T11:46:39.270Z,27.80
2018-12-09T11:49:08.868Z,27.10
2018-12-09T11:51:38.485Z,24.07
2018-12-09T11:54:08.443Z,26.33
2018-12-09T11:56:38.023Z,25.73
2018-12-09T11:59:07.545Z,25.27
2018-12-09T12:01:37.125Z,26.63
2018-12-09T12:04:06.613Z,23.00
2018-12-09T12:06:36.369Z,22.37
2018-12-09T12:09:07.325Z,23.00
2018-12-09T12:11:36.955Z,24.00
2018-12-09T12:14:06.628Z,20.67
2018-12-09T12:16:36.554Z,23.73
2018-12-09T12:19:06.355Z,28.30
2018-12-09T12:21:35.932Z,22.00
2018-12-09T12:24:05.502Z,12.80
2018-12-09T12:26:35.088Z,15.90
2018-12-09T12:29:04.683Z,18.47
2018-12-09T12:31:34.746Z,20.20
2018-12-09T12:34:04.430Z,23.57
2018-12-09T12:36:33.911Z,24.93
2018-12-09T12:39:04.416Z,20.07
2018-12-09T12:41:33.960Z,21.67
2018-12-09T12:44:03.878Z,20.53
2018-12-09T12:46:33.707Z,17.93
2018-12-09T12:49:03.390Z,20.30
2018-12-09T12:51:33.035Z,17.07
2018-12-09T12:54:02.894Z,21.40
2018-12-09T12:56:32.686Z,23.77
2018-12-09T12:59:02.262Z,15.60
2018-12-09T13:01:31.892Z,20.63
2018-12-09T13:04:01.832Z,17.13
2018-12-09T13:06:32.155Z,16.80
2018-12-09T13:09:02.071Z,15.50
2018-12-09T13:11:31.667Z,19.97
2018-12-09T13:14:01.283Z,20.70
2018-12-09T13:16:30.701Z,23.30
2018-12-09T13:19:00.155Z,16.30
2018-12-09T13:21:29.752Z,15.87
2018-12-09T13:23:59.327Z,15.37
2018-12-09T13:26:29.468Z,14.37
2018-12-09T13:28:59.113Z,14.63
2018-12-09T13:31:28.675Z,16.87
2018-12-09T13:33:58.574Z,16.40
2018-12-09T13:36:28.338Z,15.37
2018-12-09T13:38:57.923Z,14.07
2018-12-09T13:41:27.492Z,19.87
2018-12-09T13:43:56.951Z,18.93
2018-12-09T13:46:26.419Z,21.30
2018-12-09T13:48:55.970Z,20.40
2018-12-09T13:51:25.562Z,20.37
2018-12-09T13:53:55.120Z,21.30
2018-12-09T13:56:25.003Z,19.63
2018-12-09T13:58:54.760Z,23.47
2018-12-09T14:01:24.462Z,20.37
2018-12-09T14:03:54.020Z,24.37
2018-12-09T14:06:23.799Z,25.37
2018-12-09T14:08:53.633Z,24.87
2018-12-09T14:11:23.265Z,23.03
2018-12-09T14:13:52.769Z,26.63
2018-12-09T14:16:22.721Z,20.00
2018-12-09T14:18:52.536Z,22.83
2018-12-09T14:21:22.119Z,19.77
2018-12-09T14:23:51.895Z,19.43
2018-12-09T14:26:21.401Z,28.67
2018-12-09T14:28:52.782Z,46.77
2018-12-09T14:31:22.396Z,39.53
2018-12-09T14:33:51.851Z,40.03
2018-12-09T14:36:21.528Z,44.83
2018-12-09T14:38:51.613Z,54.77
2018-12-09T14:41:21.154Z,55.63
2018-12-09T14:43:50.725Z,68.23
2018-12-09T14:46:20.361Z,63.87
2018-12-09T14:48:50.112Z,64.83
2018-12-09T14:51:19.990Z,68.60
2018-12-09T14:53:49.528Z,62.60
2018-12-09T14:56:19.207Z,59.93
2018-12-09T14:58:49.001Z,53.13
2018-12-09T15:01:18.873Z,48.33
2018-12-09T15:03:48.578Z,53.70
2018-12-09T15:06:18.209Z,48.87
2018-12-09T15:08:47.638Z,50.37
2018-12-09T15:11:17.631Z,52.23
2018-12-09T15:13:47.270Z,52.57
2018-12-09T15:16:16.967Z,48.47
2018-12-09T15:18:46.871Z,49.27
2018-12-09T15:21:16.730Z,49.67
2018-12-09T15:23:46.336Z,61.30
2018-12-09T15:26:15.916Z,57.07
2018-12-09T15:28:45.483Z,63.60
2018-12-09T15:31:15.395Z,55.30
2018-12-09T15:33:45.192Z,54.57
2018-12-09T15:36:15.529Z,55.43
2018-12-09T15:38:45.268Z,52.40
2018-12-09T15:41:14.951Z,61.67
2018-12-09T15:43:44.520Z,64.13
2018-12-09T15:46:14.338Z,70.17
2018-12-09T15:48:44.195Z,74.60
2018-12-09T15:51:14.226Z,67.73
2018-12-09T15:53:45.122Z,68.83
2018-12-09T15:56:14.586Z,53.77
2018-12-09T15:58:44.283Z,57.97
2018-12-09T16:01:13.864Z,67.97
2018-12-09T16:03:43.987Z,65.00
2018-12-09T16:06:13.695Z,63.60
2018-12-09T16:08:43.623Z,60.80
2018-12-09T16:11:13.430Z,71.77
2018-12-09T16:13:43.067Z,71.30
2018-12-09T16:16:12.530Z,77.43
2018-12-09T16:18:42.151Z,73.40
2018-12-09T16:21:12.799Z,82.53
2018-12-09T16:23:42.635Z,65.47
2018-12-09T16:26:12.367Z,92.80
2018-12-09T16:28:41.922Z,100.83
2018-12-09T16:31:11.533Z,86.87
2018-12-09T16:33:41.166Z,87.47
2018-12-09T16:36:10.965Z,77.70
2018-12-09T16:38:40.878Z,100.33
2018-12-09T16:41:10.569Z,86.97
2018-12-09T16:43:40.130Z,95.40
2018-12-09T16:46:09.961Z,92.27
2018-12-09T16:48:39.784Z,65.93
2018-12-09T16:51:09.448Z,82.90
2018-12-09T16:53:38.970Z,79.57
2018-12-09T16:56:08.470Z,92.77
2018-12-09T16:58:37.942Z,102.37
2018-12-09T17:04:56.424Z,99.43
2018-12-09T17:07:26.024Z,109.80
2018-12-09T17:09:55.590Z,96.27
2018-12-09T17:12:25.210Z,93.43
2018-12-09T17:14:54.795Z,112.47
2018-12-09T17:17:24.570Z,101.20
2018-12-09T17:19:54.464Z,98.70
2018-12-09T17:22:23.953Z,96.70
2018-12-09T17:24:53.489Z,90.57
2018-12-09T17:27:23.159Z,104.80
2018-12-09T17:29:52.993Z,81.70
2018-12-09T17:32:22.889Z,86.73
2018-12-09T17:34:52.513Z,82.73
2018-12-09T17:37:22.415Z,93.27
2018-12-09T17:39:52.272Z,107.13
2018-12-09T17:42:22.469Z,100.40
2018-12-09T17:44:52.263Z,94.93
2018-12-09T17:47:21.931Z,92.07
2018-12-09T17:49:51.431Z,99.77
2018-12-09T17:52:20.845Z,97.47
2018-12-09T17:54:50.475Z,81.13
2018-12-09T17:57:20.083Z,78.17
2018-12-09T17:59:49.925Z,88.17
2018-12-09T18:02:19.845Z,98.30
2018-12-09T18:04:49.481Z,101.30
2018-12-09T18:07:19.321Z,98.23
2018-12-09T18:09:49.056Z,114.23
2018-12-09T18:12:19.514Z,105.27
2018-12-09T18:14:49.369Z,116.47
2018-12-09T18:17:18.951Z,144.43
2018-12-09T18:19:48.695Z,135.83
2018-12-09T18:22:18.741Z,136.07
2018-12-09T18:24:48.389Z,132.27
2018-12-09T18:27:18.277Z,140.90
2018-12-09T18:29:48.108Z,137.50
2018-12-09T18:32:18.088Z,165.40
2018-12-09T18:34:47.926Z,181.40
2018-12-09T18:37:17.505Z,199.40
2018-12-09T18:39:47.712Z,225.23
2018-12-09T18:42:17.379Z,268.17
2018-12-09T18:44:46.978Z,284.80
2018-12-09T18:47:16.555Z,297.17
2018-12-09T18:49:46.303Z,263.50
2018-12-09T18:52:16.357Z,242.97
2018-12-09T18:54:45.868Z,275.67
2018-12-09T18:57:15.669Z,238.13
2018-12-09T18:59:45.854Z,195.40
2018-12-09T19:02:15.558Z,196.13
2018-12-09T19:04:46.694Z,205.47
2018-12-09T19:07:17.084Z,229.73
2018-12-09T19:09:46.821Z,251.83
2018-12-09T19:12:16.870Z,230.20
2018-12-09T19:14:46.589Z,205.33
2018-12-09T19:17:16.352Z,180.83
2018-12-09T19:19:45.838Z,138.70
2018-12-09T19:22:15.327Z,139.77
2018-12-09T19:24:45.006Z,131.70
2018-12-09T19:27:14.770Z,120.67
2018-12-09T19:29:44.714Z,105.87
2018-12-09T19:32:14.331Z,115.53
2018-12-09T19:34:43.955Z,124.57
2018-12-09T19:37:13.715Z,130.10
2018-12-09T19:39:43.541Z,119.53
2018-12-09T19:42:13.235Z,133.33
2018-12-09T19:44:43.175Z,144.67
2018-12-09T19:47:13.338Z,177.40
2018-12-09T19:49:43.072Z,189.47
2018-12-09T19:52:13.021Z,241.43
2018-12-09T19:54:42.703Z,308.93
2018-12-09T19:57:12.380Z,331.00
2018-12-09T19:59:42.105Z,284.23
2018-12-09T20:02:12.006Z,390.53
2018-12-09T20:04:41.650Z,329.13
2018-12-09T20:07:11.246Z,340.20
2018-12-09T20:09:41.076Z,308.70
2018-12-09T20:12:11.065Z,313.83
2018-12-09T20:14:40.626Z,312.63
2018-12-09T20:17:10.208Z,318.53
2018-12-09T20:19:40.002Z,235.43
2018-12-09T20:22:09.819Z,297.80
2018-12-09T20:24:39.446Z,266.30
2018-12-09T20:27:09.002Z,221.50
2018-12-09T20:29:38.987Z,230.03
2018-12-09T20:32:08.812Z,318.20
2018-12-09T20:34:38.499Z,303.70
2018-12-09T20:37:08.178Z,225.20
2018-12-09T20:39:38.521Z,218.63
2018-12-09T20:42:08.449Z,229.00
2018-12-09T20:44:38.331Z,180.87
2018-12-09T20:47:08.549Z,221.07
2018-12-09T20:49:38.377Z,227.27
2018-12-09T20:52:08.396Z,204.73
2018-12-09T20:54:38.403Z,186.17
2018-12-09T20:57:08.077Z,212.97
2018-12-09T20:59:38.265Z,199.00
2018-12-09T21:02:07.832Z,170.73
2018-12-09T21:04:37.531Z,186.37
2018-12-09T21:07:07.418Z,144.43
2018-12-09T21:09:37.259Z,142.67
2018-12-09T21:12:07.289Z,155.03
2018-12-09T21:14:37.411Z,151.53
2018-12-09T21:17:07.246Z,155.87
2018-12-09T21:19:37.120Z,189.43
2018-12-09T21:22:06.747Z,228.10
2018-12-09T21:24:36.520Z,290.43
2018-12-09T21:27:06.517Z,314.80
2018-12-09T21:29:36.228Z,330.13
2018-12-09T21:32:06.144Z,313.63
2018-12-09T21:34:35.972Z,263.53
2018-12-09T21:37:05.901Z,259.13
2018-12-09T21:39:36.075Z,247.97
2018-12-09T21:42:05.811Z,280.50
2018-12-09T21:44:35.909Z,209.63
2018-12-09T21:47:05.556Z,228.33
2018-12-09T21:49:35.379Z,230.17
2018-12-09T21:52:05.431Z,202.17
2018-12-09T21:54:35.064Z,206.50
2018-12-09T21:57:04.707Z,222.87
2018-12-09T21:59:34.522Z,259.80
2018-12-09T22:02:04.948Z,222.83
2018-12-09T22:04:35.062Z,211.27
2018-12-09T22:07:05.194Z,213.63
2018-12-09T22:09:35.048Z,238.87
2018-12-09T22:12:04.901Z,252.17
2018-12-09T22:14:34.876Z,236.97
2018-12-09T22:17:04.498Z,224.10
2018-12-09T22:19:34.416Z,226.83
2018-12-09T22:22:04.216Z,225.10
2018-12-09T22:24:33.775Z,237.80
2018-12-09T22:27:03.421Z,246.10
2018-12-09T22:29:33.037Z,199.33
2018-12-09T22:32:02.809Z,233.60
2018-12-09T22:34:32.934Z,249.57
2018-12-09T22:37:02.691Z,235.57
2018-12-09T22:39:32.743Z,205.67
2018-12-09T22:42:03.392Z,208.37
2018-12-09T22:44:33.241Z,235.10
2018-12-09T22:47:02.960Z,220.70
2018-12-09T22:49:32.667Z,266.83
2018-12-09T22:52:02.418Z,260.17
2018-12-09T22:54:32.124Z,274.37
2018-12-09T22:57:02.023Z,232.60
2018-12-09T22:59:31.707Z,210.93
2018-12-09T23:02:06.307Z,241.27
2018-12-09T23:04:35.801Z,234.40
2018-12-09T23:07:10.422Z,243.60
2018-12-09T23:09:40.390Z,269.10
2018-12-09T23:12:10.345Z,229.00
2018-12-09T23:14:40.141Z,241.33
2018-12-09T23:17:10.333Z,226.27
2018-12-09T23:19:39.905Z,221.70
2018-12-09T23:22:09.985Z,223.60
2018-12-09T23:24:39.550Z,230.20
2018-12-09T23:27:09.139Z,231.07
2018-12-09T23:29:38.850Z,236.77
2018-12-09T23:32:08.686Z,237.47
2018-12-09T23:34:38.522Z,244.00
2018-12-09T23:37:08.163Z,231.50
2018-12-09T23:39:37.882Z,234.73
2018-12-09T23:42:07.660Z,210.00
2018-12-09T23:44:37.573Z,212.43
2018-12-09T23:47:07.131Z,246.53
2018-12-09T23:49:36.824Z,234.23
2018-12-09T23:52:06.553Z,269.17
2018-12-09T23:54:36.245Z,230.80
2018-12-09T23:57:05.944Z,224.47
2018-12-09T23:59:35.512Z,220.77
